Lystrup, Denmark
Current Conditions -  °F | °C
As of 5:20 PM on Thursday 30 Oct 2014 (Local Time) from EKAH Reporting Station
Clear Clear  
Wind Chill: 45°   Ceiling: Unl
Heat Index: 45°   Visibility: 6mi
Dew Point: 37°   Wind: 2mph
Humidity: 76%   Direction: 190°S
Pressure: 30.27"   Gusts: NA
Location:  56.24°N, 10.24°E
Report Text: EKAH 301620Z AUTO 19002KT 9999NDV NCD 07/03 Q1025
Loading
Personal Weather Stations






























Interactive Weather Map
Tropical Storm Tracking
New forecast layout! Learn more

10-Day Weather Forecast

Advertisements
Track Severe Weather on mobile